Forest Grove, MT

8:42 AM MDT on October 24, 2014 (GMT -0600)
Billings Logan International | Change Station
CLOSE
Current Station
Airport
Location: Billings,
Elevation: 3570 ft
Nearby Weather Stations

Elev 3570 ft 45.81 °N, 108.54 °W | Updated 49 minutes ago

Overcast
Overcast
53 °F
Feels Like 53 °F
N
4
Wind Variable Wind from SSW

Today
High -- | Low -- °F
--% Chance of Precip.
Yesterday
High -- | Low -- °F
Precip. -- in
7:47 AM 6:12 PM
New Moon, 1% visible
Pressure 29.97 in
Visibility 10.0 miles
Clouds Few 8500 ft
Mostly Cloudy 11000 ft
Mostly Cloudy 20000 ft
Dew Point 34 °F
Humidity 48%
Rainfall 0.00 in
Snow Depth Not available.
UV 0 out of 12
Pollen 1.70 out of 12
Air Quality Not available.
Flu Activity No Activity
METAR KBIL 241353Z 21003KT 10SM FEW085 BKN110 BKN200 12/01 A3001 RMK AO2 SLP149 ACSL W-E T01170011

More Conditions Fewer Conditions

Pressure 29.97 in
Visibility 10.0 miles
Clouds Few 8500 ft
Mostly Cloudy 11000 ft
Mostly Cloudy 20000 ft
Dew Point 34 °F
Humidity 48%
Rainfall 0.00 in
Snow Depth Not available.
UV 0 out of 12
Pollen 1.70 out of 12
Air Quality Not available.
Flu Activity No Activity
METAR KBIL 241353Z 21003KT 10SM FEW085 BKN110 BKN200 12/01 A3001 RMK AO2 SLP149 ACSL W-E T01170011

More Conditions Fewer Conditions

10-Day Weather Forecast

Almanac

Astronomy

Oct. 24, 2014 Rise Set
Actual Time 7:47 AM MDT 6:12 PM MDT
Civil Twilight 7:15 AM MDT 6:44 PM MDT
Nautical Twilight 6:40 AM MDT 7:19 PM MDT
Astronomical Twilight 6:05 AM MDT 7:54 PM MDT
Moon 8:31 AM MDT 6:52 PM MDT
Length of Visible Light 11h 28m
Length of Day
10h 25m
Tomorrow will be 3m 8s shorter.
New Moon, 1% of the Moon is Illuminated
Today
New Moon
Oct 30
First Quarter
Nov 6
Full
Nov 14
Last Quarter
Nov 22
New

Today's Extremes

State Highs State Lows

Community

WunderPhotos

Upload Photos

1,764,581 photos uploaded!

WunderBlogs® & News

Nearby

Snow Depth

Station Depth Elevation
Crystal Lake 1 in 6050 ft
Daisy Peak 0 in 7600 ft
Spur Park 1 in 8100 ft
Deadman Creek 0 in 6450 ft
Porcupine 0 in 6500 ft

Earthquake Activity

City Distance Mag. Time & Date
No recent earthquake activity has been reported nearby.
Minimum magnitude displayed is 2.5.

Coastal Water Temperatures

Place Temperature
No Stations Reporting

Nearby Weather Stations